createdAt,value
2023-04-21T00:00:33.870Z,8.69
2023-04-21T00:03:03.850Z,8.68
2023-04-21T00:05:33.477Z,8.65
2023-04-21T00:08:02.005Z,8.64
2023-04-21T00:10:30.909Z,8.61
2023-04-21T00:12:59.218Z,8.59
2023-04-21T00:15:27.608Z,8.60
2023-04-21T00:17:56.112Z,8.60
2023-04-21T00:20:27.155Z,8.61
2023-04-21T00:22:57.297Z,8.60
2023-04-21T00:25:26.450Z,8.57
2023-04-21T00:27:55.535Z,8.54
2023-04-21T00:30:23.878Z,8.50
2023-04-21T00:32:52.124Z,8.47
2023-04-21T00:35:20.512Z,8.43
2023-04-21T00:37:50.339Z,8.37
2023-04-21T00:40:18.777Z,8.32
2023-04-21T00:42:47.468Z,8.29
2023-04-21T00:45:16.822Z,8.25
2023-04-21T00:47:45.275Z,8.20
2023-04-21T00:50:13.647Z,8.17
2023-04-21T00:52:44.707Z,8.14
2023-04-21T00:55:13.083Z,8.12
2023-04-21T00:57:42.125Z,8.09
2023-04-21T01:00:11.027Z,8.08
2023-04-21T01:02:41.707Z,8.05
2023-04-21T01:05:10.724Z,8.02
2023-04-21T01:07:40.310Z,8.00
2023-04-21T01:10:09.130Z,7.98
2023-04-21T01:12:47.926Z,7.96
2023-04-21T01:15:18.125Z,7.96
2023-04-21T01:17:46.502Z,7.95
2023-04-21T01:20:16.191Z,7.95
2023-04-21T01:22:47.366Z,7.96
2023-04-21T01:25:17.827Z,7.98
2023-04-21T01:27:46.182Z,8.00
2023-04-21T01:30:14.512Z,8.02
2023-04-21T01:32:44.040Z,8.03
2023-04-21T01:35:12.552Z,8.03
2023-04-21T01:37:41.026Z,8.01
2023-04-21T01:40:10.344Z,8.01
2023-04-21T01:42:43.406Z,8.00
2023-04-21T01:45:12.776Z,8.00
2023-04-21T01:47:41.672Z,7.98
2023-04-21T01:50:10.811Z,7.97
2023-04-21T01:52:39.935Z,7.96
2023-04-21T01:55:08.731Z,7.94
2023-04-21T01:57:37.108Z,7.93
2023-04-21T02:00:07.188Z,7.92
2023-04-21T02:02:45.104Z,7.93
2023-04-21T02:05:14.904Z,7.92
2023-04-21T02:07:43.608Z,7.91
2023-04-21T02:10:13.157Z,7.92
2023-04-21T02:12:44.422Z,7.94
2023-04-21T02:15:12.737Z,7.95
2023-04-21T02:17:43.271Z,7.96
2023-04-21T02:20:12.573Z,7.97
2023-04-21T02:22:41.393Z,7.97
2023-04-21T02:25:10.243Z,7.96
2023-04-21T02:27:40.645Z,7.94
2023-04-21T02:30:09.553Z,7.91
2023-04-21T02:32:39.051Z,7.89
2023-04-21T02:35:07.685Z,7.85
2023-04-21T02:37:36.760Z,7.82
2023-04-21T02:40:06.824Z,7.79
2023-04-21T02:42:35.465Z,7.74
2023-04-21T02:45:04.217Z,7.70
2023-04-21T02:47:34.011Z,7.67
2023-04-21T02:50:02.525Z,7.65
2023-04-21T02:52:37.358Z,7.63
2023-04-21T02:55:06.159Z,7.61
2023-04-21T02:57:34.751Z,7.59
2023-04-21T03:00:05.224Z,7.57
2023-04-21T03:02:34.629Z,7.56
2023-04-21T03:05:04.439Z,7.54
2023-04-21T03:07:33.119Z,7.54
2023-04-21T03:10:01.516Z,7.53
2023-04-21T03:12:30.489Z,7.54
2023-04-21T03:14:59.711Z,7.57
2023-04-21T03:17:28.578Z,7.58
2023-04-21T03:19:58.936Z,7.54
2023-04-21T03:22:27.430Z,7.49
2023-04-21T03:24:55.879Z,7.46
2023-04-21T03:27:24.275Z,7.44
2023-04-21T03:29:52.619Z,7.44
2023-04-21T03:32:21.061Z,7.47
2023-04-21T03:34:50.647Z,7.48
2023-04-21T03:37:18.995Z,7.51
2023-04-21T03:39:47.352Z,7.57
2023-04-21T03:42:16.087Z,7.62
2023-04-21T03:44:44.384Z,7.66
2023-04-21T03:47:12.822Z,7.72
2023-04-21T03:49:41.302Z,7.78
2023-04-21T03:52:09.622Z,7.83
2023-04-21T03:54:38.389Z,7.89
2023-04-21T03:57:07.164Z,7.94
2023-04-21T03:59:35.627Z,8.02
2023-04-21T04:02:04.230Z,8.13
2023-04-21T04:04:33.089Z,8.20
2023-04-21T04:07:01.544Z,8.26
2023-04-21T04:09:29.976Z,8.35
2023-04-21T04:11:58.241Z,8.43
2023-04-21T04:14:27.332Z,8.47
2023-04-21T04:16:55.727Z,8.52
2023-04-21T04:19:23.986Z,8.58
2023-04-21T04:21:52.245Z,8.64
2023-04-21T04:24:21.879Z,8.69
2023-04-21T04:26:50.115Z,8.80
2023-04-21T04:29:18.985Z,8.92
2023-04-21T04:31:47.857Z,9.02
2023-04-21T04:34:16.488Z,9.08
2023-04-21T04:36:45.388Z,9.12
2023-04-21T04:39:14.043Z,9.18
2023-04-21T04:41:42.304Z,9.25
2023-04-21T04:44:11.425Z,9.27
2023-04-21T04:46:40.942Z,9.32
2023-04-21T04:49:09.274Z,9.38
2023-04-21T04:51:37.545Z,9.44
2023-04-21T04:54:06.005Z,9.48
2023-04-21T04:56:34.614Z,9.56
2023-04-21T04:59:02.852Z,9.65
2023-04-21T05:01:31.541Z,9.70
2023-04-21T05:04:00.012Z,9.78
2023-04-21T05:06:28.912Z,9.85
2023-04-21T05:08:57.230Z,9.88
2023-04-21T05:11:25.625Z,9.97
2023-04-21T05:13:54.417Z,10.06
2023-04-21T05:16:22.894Z,10.14
2023-04-21T05:18:54.141Z,10.22
2023-04-21T05:21:31.660Z,10.28
2023-04-21T05:24:00.276Z,10.33
2023-04-21T05:26:29.831Z,10.34
2023-04-21T05:28:58.992Z,10.40
2023-04-21T05:31:27.694Z,10.40
2023-04-21T05:33:56.378Z,10.29
2023-04-21T05:36:25.252Z,10.18
2023-04-21T05:38:54.239Z,10.13
2023-04-21T05:41:22.855Z,10.11
2023-04-21T05:43:51.609Z,10.07
2023-04-21T05:46:19.907Z,10.03
2023-04-21T05:48:48.348Z,10.02
2023-04-21T05:51:16.708Z,10.04
2023-04-21T05:53:46.221Z,10.06
2023-04-21T05:56:14.975Z,10.07
2023-04-21T05:58:44.110Z,10.11
2023-04-21T06:01:13.301Z,10.20
2023-04-21T06:03:41.747Z,10.28
2023-04-21T06:06:11.789Z,10.37
2023-04-21T06:08:40.360Z,10.45
2023-04-21T06:11:08.820Z,10.50
2023-04-21T06:13:39.520Z,10.59
2023-04-21T06:16:09.487Z,10.67
2023-04-21T06:18:37.879Z,10.74
2023-04-21T06:21:06.358Z,10.84
2023-04-21T06:23:34.900Z,10.92
2023-04-21T06:26:05.598Z,10.99
2023-04-21T06:28:35.567Z,11.01
2023-04-21T06:31:06.208Z,11.06
2023-04-21T06:33:36.497Z,11.12
2023-04-21T06:36:05.194Z,11.16
2023-04-21T06:38:33.700Z,11.22
2023-04-21T06:41:02.899Z,11.30
2023-04-21T06:43:31.447Z,11.35
2023-04-21T06:45:59.872Z,11.39
2023-04-21T06:48:30.121Z,11.43
2023-04-21T06:50:58.458Z,11.47
2023-04-21T06:53:26.914Z,11.51
2023-04-21T06:55:55.802Z,11.55
2023-04-21T06:58:24.207Z,11.55
2023-04-21T07:00:52.580Z,11.53
2023-04-21T07:03:21.354Z,11.55
2023-04-21T07:05:49.828Z,11.56
2023-04-21T07:08:18.128Z,11.57
2023-04-21T07:10:46.749Z,11.58
2023-04-21T07:13:16.087Z,11.58
2023-04-21T07:15:44.730Z,11.59
2023-04-21T07:18:13.205Z,11.58
2023-04-21T07:20:41.758Z,11.59
2023-04-21T07:23:10.183Z,11.61
2023-04-21T07:25:38.722Z,11.62
2023-04-21T07:28:07.360Z,11.63
2023-04-21T07:30:35.773Z,11.64
2023-04-21T07:33:04.253Z,11.66
2023-04-21T07:35:32.656Z,11.69
2023-04-21T07:38:01.005Z,11.66
2023-04-21T07:40:30.854Z,11.62
2023-04-21T07:42:59.157Z,11.60
2023-04-21T07:45:27.467Z,11.60
2023-04-21T07:47:56.055Z,11.59
2023-04-21T07:50:24.881Z,11.59
2023-04-21T07:52:53.226Z,11.56
2023-04-21T07:55:21.613Z,11.55
2023-04-21T07:57:50.679Z,11.52
2023-04-21T08:00:19.184Z,11.48
2023-04-21T08:02:48.094Z,11.49
2023-04-21T08:05:16.821Z,11.50
2023-04-21T08:07:45.369Z,11.49
2023-04-21T08:10:13.771Z,11.49
2023-04-21T08:12:42.172Z,11.46
2023-04-21T08:15:12.709Z,11.46
2023-04-21T08:17:41.382Z,11.45
2023-04-21T08:20:10.907Z,11.47
2023-04-21T08:22:40.080Z,11.50
2023-04-21T08:25:09.041Z,11.48
2023-04-21T08:27:39.728Z,11.46
2023-04-21T08:30:08.895Z,11.48
2023-04-21T08:32:37.767Z,11.50
2023-04-21T08:35:06.664Z,11.50
2023-04-21T08:37:39.461Z,11.49
2023-04-21T08:40:08.397Z,11.47
2023-04-21T08:42:39.309Z,11.45
2023-04-21T08:45:08.406Z,11.49
2023-04-21T08:47:40.590Z,11.51
2023-04-21T08:50:13.967Z,11.53
2023-04-21T08:52:42.445Z,11.56
2023-04-21T08:55:13.694Z,11.62
2023-04-21T08:57:42.162Z,11.70
2023-04-21T09:00:11.077Z,11.75
2023-04-21T09:03:01.787Z,11.78
2023-04-21T09:05:33.698Z,11.83
2023-04-21T09:08:11.610Z,11.89
2023-04-21T09:10:48.843Z,11.92
2023-04-21T09:13:19.487Z,11.95
2023-04-21T09:15:50.924Z,11.96
2023-04-21T09:18:22.357Z,11.97
2023-04-21T09:21:04.943Z,11.98
2023-04-21T09:23:49.495Z,11.99
2023-04-21T09:26:19.874Z,12.01
2023-04-21T09:28:49.830Z,12.03
2023-04-21T09:31:20.481Z,12.09
2023-04-21T09:33:58.625Z,12.16
2023-04-21T09:36:30.697Z,12.29
2023-04-21T09:39:29.206Z,12.42
2023-04-21T09:41:51.562Z,12.50
2023-04-21T09:44:20.656Z,12.59
2023-04-21T09:46:51.464Z,12.69
2023-04-21T09:49:23.680Z,12.80
2023-04-21T09:54:31.840Z,12.96
2023-04-21T09:57:02.890Z,13.01
2023-04-21T09:59:37.348Z,13.05
2023-04-21T10:02:08.074Z,13.05
2023-04-21T10:04:38.920Z,13.08
2023-04-21T10:07:07.758Z,13.13
2023-04-21T10:09:45.718Z,13.19
2023-04-21T10:12:15.641Z,13.25
2023-04-21T10:14:43.993Z,13.35
2023-04-21T10:17:12.865Z,13.41
2023-04-21T10:19:53.166Z,13.53
2023-04-21T10:22:33.427Z,13.74
2023-04-21T10:25:04.537Z,13.95
2023-04-21T10:27:43.448Z,14.12
2023-04-21T10:30:20.168Z,14.24
2023-04-21T10:32:49.193Z,14.25
2023-04-21T10:35:23.427Z,14.17
2023-04-21T10:37:52.510Z,13.97
2023-04-21T10:40:42.418Z,13.78
2023-04-21T10:43:47.471Z,13.58
2023-04-21T10:46:34.377Z,13.53
2023-04-21T10:49:10.748Z,13.45
2023-04-21T10:51:57.897Z,13.45
2023-04-21T10:54:46.247Z,13.52
2023-04-21T10:57:16.933Z,13.63
2023-04-21T10:59:47.021Z,13.76
2023-04-21T11:02:17.754Z,13.80
2023-04-21T11:04:51.580Z,13.84
2023-04-21T11:07:23.292Z,13.92
2023-04-21T11:10:01.684Z,14.01
2023-04-21T11:12:41.047Z,14.09
2023-04-21T11:15:12.071Z,14.11
2023-04-21T11:17:43.624Z,14.19
2023-04-21T11:20:12.340Z,14.19
2023-04-21T11:22:40.702Z,14.20
2023-04-21T11:25:18.855Z,14.24
2023-04-21T11:28:00.288Z,14.30
2023-04-21T11:30:34.567Z,14.36
2023-04-21T11:33:03.293Z,14.45
2023-04-21T11:35:32.402Z,14.58
2023-04-21T11:38:06.167Z,14.70
2023-04-21T11:40:48.317Z,14.80
2023-04-21T11:43:17.105Z,14.80
2023-04-21T11:45:54.150Z,14.80
2023-04-21T11:48:22.649Z,14.84
2023-04-21T11:50:51.401Z,14.90
2023-04-21T11:53:21.195Z,14.94
2023-04-21T11:55:49.694Z,15.01
2023-04-21T11:58:21.319Z,15.05
2023-04-21T12:00:51.506Z,15.07
2023-04-21T12:03:21.044Z,15.09
2023-04-21T12:05:57.410Z,15.06
2023-04-21T12:08:30.733Z,15.01
2023-04-21T12:10:59.597Z,15.01
2023-04-21T12:13:30.239Z,14.99
2023-04-21T12:15:58.576Z,14.94
2023-04-21T12:18:32.174Z,14.80
2023-04-21T12:21:03.238Z,14.69
2023-04-21T12:23:31.820Z,14.58
2023-04-21T12:26:01.641Z,14.50
2023-04-21T12:28:30.380Z,14.41
2023-04-21T12:30:58.757Z,14.38
2023-04-21T12:33:27.487Z,14.27
2023-04-21T12:35:56.524Z,14.25
2023-04-21T12:38:25.057Z,14.29
2023-04-21T12:40:53.640Z,14.29
2023-04-21T12:43:22.961Z,14.30
2023-04-21T12:45:52.976Z,14.25
2023-04-21T12:48:22.081Z,14.21
2023-04-21T12:50:50.448Z,14.19
2023-04-21T12:53:18.933Z,14.23
2023-04-21T12:56:01.044Z,14.24
2023-04-21T12:58:33.457Z,14.18
2023-04-21T13:01:02.112Z,14.14
2023-04-21T13:03:30.922Z,14.14
2023-04-21T13:05:59.360Z,14.12
2023-04-21T13:08:27.832Z,14.14
2023-04-21T13:10:56.257Z,14.17
2023-04-21T13:13:24.811Z,14.17
2023-04-21T13:15:53.239Z,14.11
2023-04-21T13:18:22.222Z,14.12
2023-04-21T13:20:50.637Z,14.12
2023-04-21T13:23:19.169Z,14.13
2023-04-21T13:25:47.872Z,14.04
2023-04-21T13:28:16.726Z,13.95
2023-04-21T13:30:45.423Z,13.89
2023-04-21T13:33:14.178Z,13.79
2023-04-21T13:35:42.738Z,13.73
2023-04-21T13:38:12.052Z,13.71
2023-04-21T13:40:40.553Z,13.68
2023-04-21T13:43:09.496Z,13.73
2023-04-21T13:45:39.170Z,13.74
2023-04-21T13:48:07.681Z,13.62
2023-04-21T13:50:36.085Z,13.53
2023-04-21T13:53:04.468Z,13.44
2023-04-21T13:55:34.225Z,13.45
2023-04-21T13:58:02.748Z,13.44
2023-04-21T14:00:31.136Z,13.41
2023-04-21T14:02:59.704Z,13.39
2023-04-21T14:05:28.781Z,13.36
2023-04-21T14:07:57.228Z,13.26
2023-04-21T14:10:25.535Z,13.26
2023-04-21T14:12:53.923Z,13.33
2023-04-21T14:15:22.376Z,13.41
2023-04-21T14:17:51.048Z,13.46
2023-04-21T14:20:20.131Z,13.46
2023-04-21T14:22:48.563Z,13.44
2023-04-21T14:25:16.994Z,13.37
2023-04-21T14:27:45.403Z,13.30
2023-04-21T14:30:15.671Z,13.22
2023-04-21T14:32:45.866Z,13.13
2023-04-21T14:35:14.671Z,13.04
2023-04-21T14:37:43.304Z,13.00
2023-04-21T14:40:11.815Z,13.01
2023-04-21T14:42:41.798Z,13.05
2023-04-21T14:45:10.836Z,13.06
2023-04-21T14:47:39.518Z,13.02
2023-04-21T14:50:08.517Z,12.99
2023-04-21T14:52:37.078Z,12.97
2023-04-21T14:55:06.165Z,12.97
2023-04-21T14:57:34.804Z,12.99
2023-04-21T15:00:03.354Z,13.01
2023-04-21T15:02:32.784Z,13.02
2023-04-21T15:05:02.390Z,12.99
2023-04-21T15:07:31.179Z,12.90
2023-04-21T15:09:59.788Z,12.81
2023-04-21T15:12:28.296Z,12.76
2023-04-21T15:14:56.578Z,12.68
2023-04-21T15:17:25.574Z,12.54
2023-04-21T15:19:53.978Z,12.41
2023-04-21T15:22:22.417Z,12.31
2023-04-21T15:24:52.399Z,12.23
2023-04-21T15:27:23.363Z,12.16
2023-04-21T15:29:51.876Z,12.13
2023-04-21T15:32:20.665Z,12.09
2023-04-21T15:34:49.402Z,12.01
2023-04-21T15:37:17.987Z,11.94
2023-04-21T15:39:46.242Z,11.84
2023-04-21T15:42:14.875Z,11.81
2023-04-21T15:44:43.236Z,11.78
2023-04-21T15:47:11.603Z,11.70
2023-04-21T15:49:39.929Z,11.61
2023-04-21T15:52:08.580Z,11.56
2023-04-21T15:54:37.943Z,11.50
2023-04-21T15:57:06.493Z,11.46
2023-04-21T15:59:35.156Z,11.44
2023-04-21T16:02:04.116Z,11.43
2023-04-21T16:04:33.084Z,11.38
2023-04-21T16:07:01.606Z,11.33
2023-04-21T16:09:30.068Z,11.31
2023-04-21T16:11:58.512Z,11.27
2023-04-21T16:14:27.007Z,11.23
2023-04-21T16:16:56.623Z,11.18
2023-04-21T16:19:25.560Z,11.10
2023-04-21T16:21:55.307Z,11.00
2023-04-21T16:24:24.086Z,10.88
2023-04-21T16:26:52.701Z,10.85
2023-04-21T16:29:21.167Z,10.79
2023-04-21T16:31:49.652Z,10.77
2023-04-21T16:34:17.984Z,10.75
2023-04-21T16:36:46.361Z,10.70
2023-04-21T16:39:14.872Z,10.65
2023-04-21T16:41:43.279Z,10.57
2023-04-21T16:44:11.707Z,10.50
2023-04-21T16:46:40.998Z,10.47
2023-04-21T16:49:09.615Z,10.45
2023-04-21T16:51:40.348Z,10.41
2023-04-21T16:54:08.700Z,10.35
2023-04-21T16:56:37.517Z,10.29
2023-04-21T16:59:09.253Z,10.25
2023-04-21T17:01:37.950Z,10.20
2023-04-21T17:04:06.570Z,10.16
2023-04-21T17:06:35.135Z,10.15
2023-04-21T17:09:03.598Z,10.13
2023-04-21T17:11:32.878Z,10.08
2023-04-21T17:14:01.810Z,10.02
2023-04-21T17:16:30.315Z,9.96
2023-04-21T17:18:58.689Z,9.91
2023-04-21T17:21:28.752Z,9.87
2023-04-21T17:23:57.218Z,9.84
2023-04-21T17:26:26.027Z,9.80
2023-04-21T17:28:54.399Z,9.76
2023-04-21T17:31:22.949Z,9.75
2023-04-21T17:33:53.450Z,9.74
2023-04-21T17:36:21.731Z,9.73
2023-04-21T17:38:50.192Z,9.75
2023-04-21T17:41:18.758Z,9.76
2023-04-21T17:43:47.312Z,9.75
2023-04-21T17:46:15.730Z,9.74
2023-04-21T17:48:44.171Z,9.73
2023-04-21T17:51:14.258Z,9.70
2023-04-21T17:53:42.717Z,9.66
2023-04-21T17:56:11.768Z,9.63
2023-04-21T17:58:41.679Z,9.59
2023-04-21T18:01:10.274Z,9.58
2023-04-21T18:03:41.634Z,9.58
2023-04-21T18:06:11.517Z,9.58
2023-04-21T18:08:41.314Z,9.57
2023-04-21T18:11:09.735Z,9.55
2023-04-21T18:13:37.998Z,9.55
2023-04-21T18:16:06.988Z,9.54
2023-04-21T18:18:35.464Z,9.52
2023-04-21T18:21:04.428Z,9.48
2023-04-21T18:23:32.914Z,9.41
2023-04-21T18:26:02.355Z,9.35
2023-04-21T18:28:32.056Z,9.32
2023-04-21T18:31:01.091Z,9.28
2023-04-21T18:33:29.836Z,9.24
2023-04-21T18:35:58.467Z,9.21
2023-04-21T18:38:26.885Z,9.19
2023-04-21T18:40:55.886Z,9.17
2023-04-21T18:43:24.439Z,9.13
2023-04-21T18:45:53.174Z,9.10
2023-04-21T18:48:21.492Z,9.07
2023-04-21T18:50:49.801Z,9.04
2023-04-21T18:53:18.047Z,9.04
2023-04-21T18:55:46.449Z,9.02
2023-04-21T18:58:15.258Z,8.99
2023-04-21T19:00:44.637Z,8.97
2023-04-21T19:03:13.200Z,8.94
2023-04-21T19:05:42.347Z,8.91
2023-04-21T19:08:10.867Z,8.86
2023-04-21T19:10:40.972Z,8.85
2023-04-21T19:13:09.519Z,8.86
2023-04-21T19:15:39.009Z,8.83
2023-04-21T19:18:07.885Z,8.81
2023-04-21T19:20:37.677Z,8.80
2023-04-21T19:23:06.078Z,8.78
2023-04-21T19:25:35.859Z,8.76
2023-04-21T19:28:04.529Z,8.71
2023-04-21T19:30:33.056Z,8.69
2023-04-21T19:33:01.441Z,8.67
2023-04-21T19:35:29.862Z,8.66
2023-04-21T19:37:59.344Z,8.63
2023-04-21T19:40:27.642Z,8.63
2023-04-21T19:42:58.677Z,8.64
2023-04-21T19:45:26.969Z,8.65
2023-04-21T19:47:55.396Z,8.65
2023-04-21T19:50:23.854Z,8.69
2023-04-21T19:52:52.117Z,8.72
2023-04-21T19:55:20.747Z,8.72
2023-04-21T19:57:49.175Z,8.70
2023-04-21T20:00:17.769Z,8.67
2023-04-21T20:02:46.415Z,8.65
2023-04-21T20:05:15.042Z,8.64
2023-04-21T20:07:44.392Z,8.65
2023-04-21T20:10:13.983Z,8.65
2023-04-21T20:12:42.375Z,8.65
2023-04-21T20:15:12.194Z,8.64
2023-04-21T20:17:42.101Z,8.66
2023-04-21T20:20:11.175Z,8.66
2023-04-21T20:22:39.960Z,8.65
2023-04-21T20:25:08.937Z,8.64
2023-04-21T20:27:37.514Z,8.63
2023-04-21T20:30:08.097Z,8.61
2023-04-21T20:32:37.191Z,8.59
2023-04-21T20:35:08.014Z,8.59
2023-04-21T20:37:37.014Z,8.57
2023-04-21T20:40:08.582Z,8.54
2023-04-21T20:42:38.587Z,8.52
2023-04-21T20:45:07.591Z,8.54
2023-04-21T20:47:37.025Z,8.56
2023-04-21T20:50:06.176Z,8.59
2023-04-21T20:52:35.199Z,8.59
2023-04-21T20:55:03.539Z,8.59
2023-04-21T20:57:33.142Z,8.58
2023-04-21T21:00:02.133Z,8.56
2023-04-21T21:02:31.308Z,8.53
2023-04-21T21:04:59.746Z,8.50
2023-04-21T21:07:28.150Z,8.46
2023-04-21T21:09:56.720Z,8.43
2023-04-21T21:12:25.677Z,8.40
2023-04-21T21:14:54.161Z,8.40
2023-04-21T21:17:22.949Z,8.40
2023-04-21T21:19:51.463Z,8.37
2023-04-21T21:22:20.039Z,8.39
2023-04-21T21:24:50.560Z,8.39
2023-04-21T21:27:19.196Z,8.36
2023-04-21T21:29:47.600Z,8.32
2023-04-21T21:32:16.368Z,8.32
2023-04-21T21:34:44.773Z,8.34
2023-04-21T21:37:13.153Z,8.39
2023-04-21T21:39:41.590Z,8.42
2023-04-21T21:42:11.614Z,8.44
2023-04-21T21:44:39.989Z,8.45
2023-04-21T21:47:08.451Z,8.46
2023-04-21T21:49:38.623Z,8.47
2023-04-21T21:52:07.400Z,8.49
2023-04-21T21:54:35.788Z,8.52
2023-04-21T21:57:04.424Z,8.55
2023-04-21T21:59:33.632Z,8.58
2023-04-21T22:02:02.689Z,8.63
2023-04-21T22:04:32.359Z,8.65
2023-04-21T22:07:00.848Z,8.66
2023-04-21T22:09:29.256Z,8.67
2023-04-21T22:11:57.695Z,8.67
2023-04-21T22:14:26.098Z,8.71
2023-04-21T22:16:54.492Z,8.76
2023-04-21T22:19:23.639Z,8.79
2023-04-21T22:21:52.468Z,8.82
2023-04-21T22:24:21.154Z,8.83
2023-04-21T22:26:49.399Z,8.84
2023-04-21T22:29:17.717Z,8.86
2023-04-21T22:31:46.362Z,8.89
2023-04-21T22:34:19.760Z,8.92
2023-04-21T22:36:48.088Z,8.93
2023-04-21T22:39:17.108Z,8.94
2023-04-21T22:41:46.144Z,8.95
2023-04-21T22:44:14.673Z,8.96
2023-04-21T22:46:43.091Z,8.96
2023-04-21T22:49:11.447Z,8.96
2023-04-21T22:51:40.526Z,8.96
2023-04-21T22:54:08.841Z,8.95
2023-04-21T22:56:37.252Z,8.92
2023-04-21T22:59:06.044Z,8.88
2023-04-21T23:01:34.706Z,8.86
2023-04-21T23:04:03.462Z,8.84
2023-04-21T23:06:33.042Z,8.80
2023-04-21T23:09:01.430Z,8.78
2023-04-21T23:11:30.553Z,8.76
2023-04-21T23:13:58.875Z,8.72
2023-04-21T23:16:27.171Z,8.69
2023-04-21T23:18:55.505Z,8.66
2023-04-21T23:21:24.194Z,8.62
2023-04-21T23:23:52.638Z,8.58
2023-04-21T23:26:22.022Z,8.56
2023-04-21T23:28:50.409Z,8.54
2023-04-21T23:31:18.941Z,8.52
2023-04-21T23:33:47.418Z,8.51
2023-04-21T23:36:15.742Z,8.46
2023-04-21T23:38:44.063Z,8.38
2023-04-21T23:41:12.407Z,8.31
2023-04-21T23:43:40.908Z,8.26
2023-04-21T23:46:09.281Z,8.22
2023-04-21T23:48:37.966Z,8.17
2023-04-21T23:51:06.803Z,8.12
2023-04-21T23:53:35.762Z,8.11
2023-04-21T23:56:04.367Z,8.10
2023-04-21T23:58:32.769Z,8.13
